Time;durP1;ratioP1;P1;durP2;ratioP2;P2;SDS_P1;SDS_P2;PMS_P1;PMS_P2;Temp;Humidity;BMP_temperature;BMP_pressure;BME280_temperature;BME280_humidity;BME280_pressure;Samples;Min_cycle;Max_cycle;Signal;HPM_P1;HPM_P2
2022/12/21 00:01:12;;;;;;;9.60;4.67;;;;;;;-2.47;100.00;101389.50;1782557;79;21454;-74
2022/12/21 00:03:39;;;;;;;12.30;4.73;;;;;;;-2.45;100.00;101375.73;1782277;80;20992;-74
2022/12/21 00:06:07;;;;;;;9.63;4.70;;;;;;;-2.47;100.00;101372.75;1783823;80;21088;-74
2022/12/21 00:08:44;;;;;;;11.67;5.40;;;;;;;-2.44;100.00;101369.97;1785221;80;20984;-73
2022/12/21 00:11:12;;;;;;;9.70;4.40;;;;;;;-2.44;100.00;101377.92;1782296;80;21044;-73
2022/12/21 00:13:39;;;;;;;11.40;5.50;;;;;;;-2.43;100.00;101375.69;1782360;79;21044;-74
2022/12/21 00:16:10;;;;;;;10.83;4.97;;;;;;;-2.41;100.00;101372.52;1781893;80;21005;-74
2022/12/21 00:18:37;;;;;;;12.93;5.27;;;;;;;-2.40;100.00;101369.82;1782152;79;21059;-74
2022/12/21 00:21:19;;;;;;;9.40;4.43;;;;;;;-2.38;100.00;101368.45;1782109;80;21044;-75
2022/12/21 00:23:48;;;;;;;12.20;4.90;;;;;;;-2.39;100.00;101363.62;1781684;80;21036;-75
2022/12/21 00:26:19;;;;;;;10.10;5.03;;;;;;;-2.38;100.00;101357.38;1786109;79;21028;-74
2022/12/21 00:28:47;;;;;;;9.57;4.83;;;;;;;-2.35;100.00;101353.30;1790295;80;21542;-73
2022/12/21 00:31:17;;;;;;;12.37;4.90;;;;;;;-2.32;100.00;101352.31;1790228;80;21044;-74
2022/12/21 00:33:45;;;;;;;9.53;4.47;;;;;;;-2.31;100.00;101349.61;1790377;80;21012;-75
2022/12/21 00:36:15;;;;;;;12.73;5.40;;;;;;;-2.27;100.00;101350.83;1790466;80;21040;-73
2022/12/21 00:38:42;;;;;;;14.43;5.40;;;;;;;-2.26;100.00;101341.50;1790219;80;21036;-74
2022/12/21 00:41:12;;;;;;;10.30;4.77;;;;;;;-2.24;100.00;101340.12;1790259;80;21036;-74
2022/12/21 00:43:41;;;;;;;9.27;4.87;;;;;;;-2.26;100.00;101336.67;1790678;80;21514;-74
2022/12/21 00:46:18;;;;;;;10.83;5.17;;;;;;;-2.25;100.00;101324.66;1790566;80;21000;-74
2022/12/21 00:48:45;;;;;;;10.97;5.00;;;;;;;-2.25;100.00;101325.98;1790307;80;21020;-74
2022/12/21 00:51:15;;;;;;;9.87;4.60;;;;;;;-2.25;100.00;101316.72;1790181;80;21009;-74
2022/12/21 00:53:42;;;;;;;9.30;4.40;;;;;;;-2.24;100.00;101314.95;1790487;80;21008;-74
2022/12/21 00:56:09;;;;;;;12.53;5.17;;;;;;;-2.23;100.00;101304.30;1790195;80;21005;-73
2022/12/21 00:58:36;;;;;;;12.37;5.33;;;;;;;-2.23;100.00;101291.05;1790508;80;21040;-73
2022/12/21 01:01:12;;;;;;;12.03;5.13;;;;;;;-2.22;100.00;101286.12;1790175;80;20996;-74
2022/12/21 01:03:40;;;;;;;9.80;5.10;;;;;;;-2.20;100.00;101290.05;1790484;80;21043;-75
2022/12/21 01:06:14;;;;;;;13.77;5.17;;;;;;;-2.20;100.00;101288.25;1790430;79;21056;-73
2022/12/21 01:08:41;;;;;;;11.05;4.92;;;;;;;-2.17;100.00;101287.30;1790481;80;21004;-73
2022/12/21 01:11:09;;;;;;;10.80;5.03;;;;;;;-2.17;100.00;101276.69;1790370;80;21033;-74
2022/12/21 01:13:37;;;;;;;14.50;5.20;;;;;;;-2.19;100.00;101272.77;1790297;80;21032;-74
2022/12/21 01:16:11;;;;;;;20.73;6.90;;;;;;;-2.18;100.00;101275.84;1790487;80;21036;-74
2022/12/21 01:18:38;;;;;;;29.20;9.73;;;;;;;-2.17;100.00;101265.62;1770776;80;21017;-73
2022/12/21 01:21:06;;;;;;;35.23;11.23;;;;;;;-2.16;100.00;101257.20;1790357;80;21064;-73
2022/12/21 01:23:33;;;;;;;23.73;8.67;;;;;;;-2.15;100.00;101259.80;1790096;80;21012;-73
2022/12/21 01:26:00;;;;;;;15.70;6.57;;;;;;;-2.16;100.00;101259.41;1790433;79;21474;-73
2022/12/21 01:28:27;;;;;;;13.20;5.50;;;;;;;-2.16;100.00;101247.92;1790350;80;21595;-74
2022/12/21 01:30:54;;;;;;;9.43;4.40;;;;;;;-2.14;100.00;101248.76;1790543;80;21028;-74
2022/12/21 01:33:21;;;;;;;9.60;4.70;;;;;;;-2.15;100.00;101247.88;1790232;80;20989;-74
2022/12/21 01:35:48;;;;;;;9.53;4.53;;;;;;;-2.14;100.00;101243.45;1790198;80;21036;-74
2022/12/21 01:38:15;;;;;;;9.87;4.63;;;;;;;-2.13;100.00;101241.19;1790519;80;21000;-71
2022/12/21 01:40:42;;;;;;;9.07;4.53;;;;;;;-2.12;100.00;101238.95;1790213;80;21039;-74
2022/12/21 01:43:40;;;;;;;10.83;4.97;;;;;;;-2.11;100.00;101230.06;1790102;80;21540;-73
2022/12/21 01:46:42;;;;;;;12.23;5.10;;;;;;;-2.10;100.00;101229.15;1790426;80;21012;-74
2022/12/21 01:49:22;;;;;;;10.20;4.77;;;;;;;-2.11;100.00;101224.32;1790123;80;21064;-74
2022/12/21 01:51:54;;;;;;;12.20;4.87;;;;;;;-2.13;100.00;101229.27;1790463;80;21508;-75
2022/12/21 01:54:32;;;;;;;11.53;5.23;;;;;;;-2.13;100.00;101223.96;1790117;80;21552;-74
2022/12/21 01:57:01;;;;;;;10.70;5.13;;;;;;;-2.12;100.00;101220.41;1790543;80;20977;-74
2022/12/21 01:59:37;;;;;;;11.23;5.03;;;;;;;-2.12;100.00;101221.25;1790223;80;20977;-74
2022/12/21 02:02:08;;;;;;;8.87;4.40;;;;;;;-2.11;100.00;101212.83;1790343;80;21038;-74
2022/12/21 02:04:35;;;;;;;11.77;5.13;;;;;;;-2.09;100.00;101217.61;1790425;80;21040;-74
2022/12/21 02:07:02;;;;;;;8.40;4.20;;;;;;;-2.11;100.00;101215.05;1790482;80;20981;-72
2022/12/21 02:09:31;;;;;;;8.07;4.37;;;;;;;-2.10;100.00;101212.78;1790244;80;21498;-73
2022/12/21 02:11:59;;;;;;;8.83;4.20;;;;;;;-2.09;100.00;101204.35;1790339;79;21008;-73
2022/12/21 02:14:27;;;;;;;10.90;4.90;;;;;;;-2.08;100.00;101204.77;1790272;80;21051;-74
2022/12/21 02:17:19;;;;;;;9.83;4.67;;;;;;;-2.10;100.00;101204.83;1790268;80;20981;-73
2022/12/21 02:20:14;;;;;;;10.00;4.80;;;;;;;-2.08;100.00;101201.27;1779592;79;21040;-73
2022/12/21 02:23:13;;;;;;;9.40;4.23;;;;;;;-2.07;100.00;101195.91;1789613;80;21028;-73
2022/12/21 02:26:20;;;;;;;10.73;4.93;;;;;;;-2.05;100.00;101191.84;1790440;79;21349;-73
2022/12/21 02:29:26;;;;;;;10.50;4.63;;;;;;;-2.02;100.00;101188.63;1790100;80;21518;-72
2022/12/21 02:32:29;;;;;;;13.07;4.53;;;;;;;-2.00;100.00;101188.55;1790341;80;21020;-74
2022/12/21 02:35:14;;;;;;;9.05;4.22;;;;;;;-1.97;100.00;101185.30;1790919;80;21493;-74
2022/12/21 02:37:52;;;;;;;9.33;4.70;;;;;;;-1.95;100.00;101187.45;1789955;80;20993;-75
2022/12/21 02:41:14;;;;;;;10.70;5.03;;;;;;;-1.91;100.00;101182.42;1790545;79;21013;-74
2022/12/21 02:44:14;;;;;;;11.67;4.80;;;;;;;-1.91;100.00;101177.59;1790162;79;21025;-73
2022/12/21 02:47:09;;;;;;;14.23;5.43;;;;;;;-1.89;100.00;101170.88;1790432;79;21537;-74
2022/12/21 02:50:09;;;;;;;13.33;5.60;;;;;;;-1.89;100.00;101173.52;1790301;80;21028;-74
2022/12/21 02:52:51;;;;;;;12.30;5.50;;;;;;;-1.87;100.00;101169.05;1789406;79;21569;-73
2022/12/21 02:55:20;;;;;;;9.90;4.73;;;;;;;-1.87;100.00;101162.41;1789967;80;20993;-73
2022/12/21 02:57:47;;;;;;;9.60;4.63;;;;;;;-1.86;100.00;101163.68;1790522;80;21096;-73
2022/12/21 03:00:18;;;;;;;10.33;5.17;;;;;;;-1.84;100.00;101167.56;1793003;80;21111;-74
2022/12/21 03:06:23;;;;;;;11.43;5.83;;;;;;;-1.82;100.00;101167.92;1790310;80;21012;-74
2022/12/21 03:09:33;;;;;;;11.73;5.50;;;;;;;-1.80;100.00;101167.86;1790122;80;21075;-74
2022/12/21 03:12:24;;;;;;;12.60;4.73;;;;;;;-1.81;100.00;101165.65;1790178;80;21059;-73
2022/12/21 03:15:19;;;;;;;11.53;5.03;;;;;;;-1.80;100.00;101158.58;1790580;80;21047;-73
2022/12/21 03:18:13;;;;;;;10.50;5.00;;;;;;;-1.81;100.00;101157.70;1790227;80;21462;-74
2022/12/21 03:20:51;;;;;;;10.30;4.50;;;;;;;-1.79;100.00;101153.22;1790397;79;21036;-73
2022/12/21 03:23:26;;;;;;;9.87;4.70;;;;;;;-1.79;100.00;101147.91;1789930;80;21068;-74
2022/12/21 03:26:17;;;;;;;7.90;4.07;;;;;;;-1.79;100.00;101149.68;1790387;80;21025;-73
2022/12/21 03:28:44;;;;;;;11.67;5.30;;;;;;;-1.79;100.00;101151.00;1790307;79;21063;-73
2022/12/21 03:31:15;;;;;;;12.00;5.57;;;;;;;-1.78;100.00;101154.07;1790197;80;21534;-73
2022/12/21 03:33:47;;;;;;;11.43;5.07;;;;;;;-1.77;100.00;101150.47;1790471;80;21020;-74
2022/12/21 03:36:22;;;;;;;11.43;4.97;;;;;;;-1.76;100.00;101160.16;1790474;80;21013;-74
2022/12/21 03:38:52;;;;;;;10.87;5.40;;;;;;;-1.76;100.00;101158.36;1790547;80;21438;-73
2022/12/21 03:41:27;;;;;;;11.47;5.87;;;;;;;-1.75;100.00;101150.82;1790410;80;21016;-74
2022/12/21 03:43:54;;;;;;;13.80;5.80;;;;;;;-1.74;100.00;101139.27;1790391;80;21039;-73
2022/12/21 03:46:29;;;;;;;9.93;4.87;;;;;;;-1.74;100.00;101139.27;1790323;79;21040;-73
2022/12/21 03:49:04;;;;;;;12.97;5.00;;;;;;;-1.73;100.00;101144.98;1790540;80;21017;-74
2022/12/21 03:51:48;;;;;;;10.73;4.97;;;;;;;-1.70;100.00;101142.66;1789713;80;21000;-73
2022/12/21 03:54:39;;;;;;;13.80;5.60;;;;;;;-1.70;100.00;101146.63;1790417;80;21044;-73
2022/12/21 03:57:06;;;;;;;10.90;5.53;;;;;;;-1.69;100.00;101143.06;1790276;79;21534;-74
2022/12/21 03:59:36;;;;;;;14.17;6.33;;;;;;;-1.68;100.00;101139.94;1790229;80;21032;-73
2022/12/21 04:02:14;;;;;;;14.67;5.87;;;;;;;-1.67;100.00;101121.78;1788969;79;21033;-73
2022/12/21 04:05:02;;;;;;;14.00;5.90;;;;;;;-1.66;100.00;101116.89;1789265;79;21573;-73
2022/12/21 04:07:29;;;;;;;10.60;4.90;;;;;;;-1.64;100.00;101114.56;1790290;79;21075;-73
2022/12/21 04:10:03;;;;;;;11.83;4.90;;;;;;;-1.63;100.00;101115.41;1790507;80;21063;-73
2022/12/21 04:12:36;;;;;;;14.77;5.87;;;;;;;-1.60;100.00;101117.94;1790487;79;21004;-74
2022/12/21 04:15:19;;;;;;;11.10;5.45;;;;;;;-1.59;100.00;101121.86;1790602;79;21032;-74
2022/12/21 04:17:48;;;;;;;11.40;5.85;;;;;;;-1.59;100.00;101114.38;1790377;79;21063;-73
2022/12/21 04:20:24;;;;;;;8.30;4.67;;;;;;;-1.56;100.00;101115.09;1790559;80;21035;-74
2022/12/21 04:28:31;;;;;;;13.10;5.53;;;;;;;-1.50;100.00;101119.27;1783248;80;21037;-74
2022/12/21 04:30:59;;;;;;;10.13;4.83;;;;;;;-1.46;100.00;101122.64;1782291;80;21056;-74
2022/12/21 04:33:29;;;;;;;13.33;5.67;;;;;;;-1.44;100.00;101131.39;1781987;80;21549;-74
2022/12/21 04:38:44;;;;;;;11.77;5.40;;;;;;;-1.41;100.00;101128.61;1782022;80;21037;-73
2022/12/21 04:41:11;;;;;;;12.97;5.30;;;;;;;-1.37;100.00;101129.72;1781867;80;21071;-73
2022/12/21 04:43:39;;;;;;;8.97;4.53;;;;;;;-1.36;100.00;101133.25;1781930;80;20982;-74
2022/12/21 04:46:09;;;;;;;12.10;5.33;;;;;;;-1.35;100.00;101132.30;1782232;79;20958;-73
2022/12/21 04:48:36;;;;;;;12.90;5.70;;;;;;;-1.35;100.00;101127.89;1782279;79;21008;-73
2022/12/21 04:51:10;;;;;;;11.70;5.57;;;;;;;-1.33;100.00;101131.77;1782064;80;21017;-73
2022/12/21 04:53:37;;;;;;;9.90;5.00;;;;;;;-1.30;100.00;101134.30;1781697;80;21545;-73
2022/12/21 04:56:07;;;;;;;13.93;5.80;;;;;;;-1.28;100.00;101127.12;1782187;80;21037;-74
2022/12/21 04:58:34;;;;;;;11.87;5.57;;;;;;;-1.28;100.00;101127.59;1782211;79;21115;-73
2022/12/21 05:01:02;;;;;;;13.13;5.70;;;;;;;-1.31;100.00;101132.59;1781970;80;21025;-74
2022/12/21 05:03:30;;;;;;;12.87;5.63;;;;;;;-1.31;100.00;101148.95;1771762;80;21044;-73
2022/12/21 05:06:00;;;;;;;10.67;5.50;;;;;;;-1.29;100.00;101149.74;1782083;80;20998;-72
2022/12/21 05:08:28;;;;;;;11.60;5.13;;;;;;;-1.30;100.00;101152.02;1782233;79;21008;-73
2022/12/21 05:10:54;;;;;;;12.70;5.73;;;;;;;-1.29;100.00;101141.78;1771287;80;20973;-74
2022/12/21 05:13:21;;;;;;;11.20;5.20;;;;;;;-1.29;100.00;101151.95;1782282;79;21037;-73
2022/12/21 05:15:48;;;;;;;11.03;5.43;;;;;;;-1.28;100.00;101156.31;1782092;80;21028;-73
2022/12/21 05:18:15;;;;;;;15.37;6.13;;;;;;;-1.27;100.00;101151.89;1782439;80;21510;-73
2022/12/21 05:20:43;;;;;;;17.50;6.43;;;;;;;-1.25;100.00;101156.66;1782114;80;21032;-71
2022/12/21 05:23:09;;;;;;;12.37;5.50;;;;;;;-1.26;100.00;101158.43;1782216;80;21012;-75
2022/12/21 05:25:37;;;;;;;12.63;5.47;;;;;;;-1.26;100.00;101157.10;1782048;80;21064;-74
2022/12/21 05:28:04;;;;;;;13.77;5.90;;;;;;;-1.26;100.00;101146.95;1782229;79;20970;-72
2022/12/21 05:30:31;;;;;;;10.43;5.80;;;;;;;-1.25;100.00;101148.70;1782153;80;21021;-74
2022/12/21 05:32:59;;;;;;;11.07;5.10;;;;;;;-1.26;100.00;101141.66;1782376;79;21024;-74
2022/12/21 05:35:26;;;;;;;9.47;4.77;;;;;;;-1.25;100.00;101134.10;1782230;80;21032;-74
2022/12/21 05:37:52;;;;;;;11.90;5.47;;;;;;;-1.25;100.00;101124.81;1782347;79;21009;-73
2022/12/21 05:40:19;;;;;;;12.67;5.50;;;;;;;-1.25;100.00;101125.66;1782161;79;21021;-74
2022/12/21 05:42:46;;;;;;;13.80;6.03;;;;;;;-1.25;100.00;101118.17;1781409;79;21478;-75
2022/12/21 05:45:13;;;;;;;15.93;6.17;;;;;;;-1.28;100.00;101131.58;1781524;80;20998;-73
2022/12/21 05:47:40;;;;;;;11.37;5.50;;;;;;;-1.25;100.00;101137.61;1782191;80;20995;-74
2022/12/21 05:50:09;;;;;;;12.73;5.00;;;;;;;-1.25;100.00;101132.78;1781503;80;21113;-73
2022/12/21 05:52:36;;;;;;;13.00;5.27;;;;;;;-1.24;100.00;101131.38;1783131;80;21027;-74
2022/12/21 05:55:05;;;;;;;11.70;5.33;;;;;;;-1.25;100.00;101119.50;1747523;82;21010;-73
2022/12/21 05:57:34;;;;;;;16.87;5.93;;;;;;;-1.24;100.00;101126.08;1746056;82;21026;-74
2022/12/21 06:00:01;;;;;;;13.83;5.70;;;;;;;-1.22;100.00;101125.98;1745230;82;21011;-72
2022/12/21 06:27:46;;;;;;;15.00;6.43;;;;;;;-1.01;100.00;101040.08;1808244;78;22226;-67
2022/12/21 06:30:14;;;;;;;14.77;6.50;;;;;;;-0.96;100.00;101140.73;1757889;80;21053;-68
2022/12/21 06:32:41;;;;;;;14.00;5.70;;;;;;;-0.92;100.00;101146.77;1765941;80;20994;-68
2022/12/21 06:35:08;;;;;;;15.07;6.53;;;;;;;-0.90;100.00;101145.78;1768366;80;21048;-68
2022/12/21 06:37:37;;;;;;;17.60;6.47;;;;;;;-0.89;100.00;101148.81;1764277;80;21060;-69
2022/12/21 06:40:06;;;;;;;24.87;8.57;;;;;;;-0.87;100.00;101156.23;1768716;80;21606;-70
2022/12/21 06:42:34;;;;;;;30.03;9.40;;;;;;;-0.85;100.00;101162.80;1751788;82;21009;-68
2022/12/21 06:45:00;;;;;;;25.93;8.60;;;;;;;-0.81;100.00;101174.56;1753704;80;21069;-68
2022/12/21 06:47:27;;;;;;;17.40;6.77;;;;;;;-0.79;100.00;101179.33;1778075;80;21033;-68
2022/12/21 06:49:54;;;;;;;17.50;6.17;;;;;;;-0.79;100.00;101182.46;1782715;80;21041;-69
2022/12/21 06:52:20;;;;;;;17.83;7.03;;;;;;;-0.80;100.00;101182.94;1773690;80;21081;-70
2022/12/21 06:54:47;;;;;;;19.77;7.90;;;;;;;-0.77;100.00;101184.09;1765637;80;21510;-68
2022/12/21 06:57:14;;;;;;;18.17;6.83;;;;;;;-0.75;100.00;101182.70;1768595;80;20998;-68
2022/12/21 06:59:41;;;;;;;13.97;6.03;;;;;;;-0.71;100.00;101174.12;1768407;80;21006;-69
2022/12/21 07:02:12;;;;;;;17.90;6.43;;;;;;;-0.69;100.00;101177.57;1767965;80;21014;-68
2022/12/21 07:04:39;;;;;;;19.03;6.73;;;;;;;-0.68;100.00;101187.27;1755648;80;21065;-69
2022/12/21 07:07:05;;;;;;;17.80;7.20;;;;;;;-0.70;100.00;101175.86;1751832;79;21065;-67
2022/12/21 07:09:33;;;;;;;13.43;6.00;;;;;;;-0.71;100.00;101182.09;1775269;79;20994;-67
2022/12/21 07:12:01;;;;;;;14.10;5.53;;;;;;;-0.73;100.00;101176.00;1771699;80;21061;-69
2022/12/21 07:14:28;;;;;;;16.27;7.10;;;;;;;-0.76;100.00;101173.03;1782346;80;21021;-69
2022/12/21 07:16:55;;;;;;;16.20;7.00;;;;;;;-0.77;100.00;101173.47;1781219;80;21555;-68
2022/12/21 07:19:22;;;;;;;15.50;7.53;;;;;;;-0.74;100.00;101169.83;1781845;80;20974;-68
2022/12/21 07:21:48;;;;;;;17.27;7.80;;;;;;;-0.72;100.00;101172.42;1782256;80;21553;-69
2022/12/21 07:24:16;;;;;;;23.33;10.10;;;;;;;-0.74;100.00;101172.94;1782410;80;20997;-66
2022/12/21 07:26:43;;;;;;;22.40;9.10;;;;;;;-0.71;100.00;101176.78;1786459;80;21097;-68
2022/12/21 07:29:11;;;;;;;16.80;7.50;;;;;;;-0.71;100.00;101171.47;1790215;80;21017;-68
2022/12/21 07:31:40;;;;;;;21.30;9.13;;;;;;;-0.70;100.00;101166.09;1790662;80;21522;-68
2022/12/21 07:34:06;;;;;;;28.50;13.17;;;;;;;-0.71;100.00;101167.02;1790953;80;21161;-69
2022/12/21 07:36:33;;;;;;;24.90;10.13;;;;;;;-0.67;100.00;101174.41;1789667;80;21495;-67
2022/12/21 07:38:59;;;;;;;23.67;9.40;;;;;;;-0.64;100.00;101171.14;1790604;80;20942;-69
2022/12/21 07:41:26;;;;;;;13.97;6.70;;;;;;;-0.58;100.00;101171.31;1778897;80;21581;-69
2022/12/21 07:43:53;;;;;;;18.77;7.73;;;;;;;-0.55;100.00;101163.17;1784505;80;21045;-69
2022/12/21 07:46:38;;;;;;;27.87;11.37;;;;;;;-0.52;100.00;101167.50;1760016;80;20997;-70
2022/12/21 07:49:06;;;;;;;17.70;7.37;;;;;;;-0.50;100.00;101174.45;1782885;80;21056;-68
2022/12/21 07:51:33;;;;;;;14.97;6.53;;;;;;;-0.47;100.00;101169.48;1723326;83;21030;-67
2022/12/21 07:54:00;;;;;;;17.03;6.70;;;;;;;-0.48;100.00;101142.49;1723570;83;21058;-68
2022/12/21 07:56:27;;;;;;;18.57;7.90;;;;;;;-0.49;100.00;101153.59;1722978;83;21038;-67
2022/12/21 07:58:54;;;;;;;15.83;6.93;;;;;;;-0.45;100.00;101157.83;1723020;83;21536;-69
2022/12/21 08:01:21;;;;;;;19.47;7.03;;;;;;;-0.41;100.00;101160.75;1724531;82;21024;-67
2022/12/21 08:03:48;;;;;;;20.57;7.47;;;;;;;-0.39;100.00;101157.99;1713885;83;21029;-68
2022/12/21 08:06:15;;;;;;;17.07;7.50;;;;;;;-0.37;100.00;101157.92;1733794;83;21073;-67
2022/12/21 08:08:45;;;;;;;19.27;7.73;;;;;;;-0.37;100.00;101164.12;1734782;83;21060;-67
2022/12/21 08:11:16;;;;;;;14.90;7.03;;;;;;;-0.34;100.00;101164.42;1735084;81;21049;-67
2022/12/21 08:13:43;;;;;;;18.83;8.57;;;;;;;-0.29;100.00;101158.43;1734677;83;21061;-68
2022/12/21 08:16:15;;;;;;;15.43;7.00;;;;;;;-0.24;100.00;101164.39;1726475;83;21546;-67
2022/12/21 08:18:41;;;;;;;18.93;8.03;;;;;;;-0.20;100.00;101153.98;1718251;83;21005;-69
2022/12/21 08:21:08;;;;;;;15.60;7.20;;;;;;;-0.15;100.00;101155.10;1718886;83;21510;-70
2022/12/21 08:23:35;;;;;;;15.13;6.63;;;;;;;-0.12;100.00;101157.14;1719567;83;21218;-68
2022/12/21 08:26:04;;;;;;;16.17;7.13;;;;;;;-0.10;100.00;101151.76;1716670;83;21056;-73
2022/12/21 08:28:31;;;;;;;17.73;7.53;;;;;;;-0.08;100.00;101144.56;1707694;83;20955;-71
2022/12/21 08:31:12;;;;;;;22.07;9.33;;;;;;;-0.02;100.00;101141.58;1728817;82;21028;-71
2022/12/21 08:33:45;;;;;;;23.90;10.63;;;;;;;0.06;100.00;101138.08;1712180;83;20971;-70
2022/12/21 08:36:11;;;;;;;21.73;8.80;;;;;;;0.14;100.00;101138.57;1704474;83;21010;-70
2022/12/21 08:38:39;;;;;;;18.10;7.57;;;;;;;0.17;100.00;101141.53;1706789;83;21019;-74
2022/12/21 08:41:05;;;;;;;20.33;8.20;;;;;;;0.17;100.00;101143.72;1698882;83;21019;-71
2022/12/21 08:43:36;;;;;;;23.10;8.63;;;;;;;0.25;100.00;101151.77;1731174;82;21042;-69
2022/12/21 08:46:06;;;;;;;19.80;9.30;;;;;;;0.27;100.00;101145.94;1726278;82;21003;-73
2022/12/21 08:48:33;;;;;;;17.93;8.03;;;;;;;0.31;100.00;101146.16;1696486;83;21014;-71
2022/12/21 08:51:00;;;;;;;18.77;9.03;;;;;;;0.43;100.00;101140.21;1697330;83;21052;-71
2022/12/21 08:53:26;;;;;;;17.57;8.13;;;;;;;0.48;100.00;101130.19;1715309;84;21062;-73
2022/12/21 08:55:54;;;;;;;14.30;6.60;;;;;;;0.53;100.00;101116.62;1711569;82;21030;-73
2022/12/21 08:58:22;;;;;;;15.00;7.00;;;;;;;0.53;100.00;101121.50;1711352;83;21520;-73
2022/12/21 09:00:55;;;;;;;15.50;6.87;;;;;;;0.50;100.00;101112.81;1702439;84;21014;-72
2022/12/21 09:03:22;;;;;;;16.93;7.27;;;;;;;0.51;100.00;101107.42;1705959;84;21066;-72
2022/12/21 09:05:58;;;;;;;19.50;8.97;;;;;;;0.54;100.00;101108.56;1693809;83;21006;-69
2022/12/21 09:08:25;;;;;;;16.00;7.43;;;;;;;0.58;100.00;101104.42;1695823;83;21559;-72
2022/12/21 09:11:05;;;;;;;16.27;7.20;;;;;;;0.66;100.00;101107.06;1729208;82;20998;-73
2022/12/21 09:13:32;;;;;;;13.60;6.27;;;;;;;0.70;100.00;101106.44;1710581;83;21053;-73
2022/12/21 09:15:59;;;;;;;18.10;7.07;;;;;;;0.75;100.00;101109.23;1710844;83;21030;-73
2022/12/21 09:18:26;;;;;;;17.30;6.73;;;;;;;0.80;100.00;101111.66;1736599;82;21356;-71
2022/12/21 09:20:54;;;;;;;15.23;6.47;;;;;;;0.83;100.00;101110.63;1709753;83;20974;-70
2022/12/21 09:23:21;;;;;;;15.20;6.53;;;;;;;0.86;100.00;101111.32;1702769;83;21065;-72
2022/12/21 09:25:48;;;;;;;25.43;10.70;;;;;;;0.96;100.00;101103.70;1728047;82;21531;-74
2022/12/21 09:28:15;;;;;;;28.77;12.00;;;;;;;1.10;100.00;101108.29;1707621;83;21194;-74
2022/12/21 09:30:42;;;;;;;29.37;13.03;;;;;;;1.16;100.00;101098.61;1704393;83;20974;-73
2022/12/21 09:33:08;;;;;;;30.40;14.60;;;;;;;1.19;100.00;101102.45;1729854;82;21488;-70
2022/12/21 09:35:37;;;;;;;15.20;7.43;;;;;;;1.20;100.00;101098.81;1744582;82;21085;-74
2022/12/21 09:38:04;;;;;;;14.50;6.13;;;;;;;1.20;100.00;101096.16;1719003;83;21050;-74
2022/12/21 09:40:32;;;;;;;12.07;5.73;;;;;;;1.16;100.00;101092.44;1744575;81;21062;-75
2022/12/21 09:43:28;;;;;;;10.57;5.83;;;;;;;1.17;100.00;101086.14;1744427;82;21555;-75
2022/12/21 09:46:05;;;;;;;13.53;6.10;;;;;;;1.25;100.00;101083.44;1719257;83;21018;-75
2022/12/21 09:48:39;;;;;;;13.13;6.30;;;;;;;1.25;100.00;101076.78;1719027;83;21492;-72
2022/12/21 09:51:14;;;;;;;12.87;6.03;;;;;;;1.22;100.00;101070.31;1704642;83;21202;-72
2022/12/21 09:53:46;;;;;;;12.97;5.87;;;;;;;1.18;100.00;101067.41;1728371;82;21026;-71
2022/12/21 09:56:16;;;;;;;13.50;6.25;;;;;;;1.17;100.00;101040.84;1736562;82;21021;-73
2022/12/21 09:58:51;;;;;;;13.13;5.27;;;;;;;1.15;100.00;101038.27;1733921;82;20986;-73
2022/12/21 10:01:35;;;;;;;;;;;;;;;1.19;100.00;101034.51;1728815;82;21081;-73
2022/12/21 10:04:28;;;;;;;15.33;6.53;;;;;;;1.23;100.00;101044.52;1693521;84;20109;-73
2022/12/21 10:07:15;;;;;;;;;;;;;;;1.32;100.00;101042.17;1710227;83;21029;-73
2022/12/21 10:17:04;;;;;;;12.40;5.83;;;;;;;1.45;100.00;100939.75;1803257;79;27039;-72
2022/12/21 10:20:04;;;;;;;15.03;6.70;;;;;;;1.46;100.00;101005.89;1756603;79;20998;-72
2022/12/21 10:22:35;;;;;;;13.60;5.80;;;;;;;1.55;100.00;101019.17;1761623;81;21069;-70
2022/12/21 10:25:34;;;;;;;;;;;;;;;;;;;;;
2022/12/21 10:28:30;;;;;;;20.87;9.10;;;;;;;1.58;100.00;101032.33;1726753;81;21582;-72
2022/12/21 10:31:08;;;;;;;16.70;6.43;;;;;;;1.55;100.00;101048.00;1753081;80;21027;-72
2022/12/21 10:33:46;;;;;;;16.93;6.70;;;;;;;1.57;100.00;101042.11;1772287;80;21045;-72
2022/12/21 10:36:22;;;;;;;19.07;8.07;;;;;;;1.56;100.00;101044.41;1759713;80;21038;-72
2022/12/21 10:38:49;;;;;;;14.97;6.97;;;;;;;1.57;100.00;101043.92;1758984;80;20982;-73
2022/12/21 10:41:22;;;;;;;14.77;6.97;;;;;;;1.69;100.00;101033.39;1757068;80;20954;-75
2022/12/21 10:43:49;;;;;;;13.90;6.07;;;;;;;1.82;100.00;101033.53;1751297;80;21007;-74
2022/12/21 10:46:18;;;;;;;16.20;6.80;;;;;;;1.96;100.00;101027.37;1757604;80;21050;-72
2022/12/21 10:48:47;;;;;;;12.73;6.53;;;;;;;2.17;100.00;101019.05;1764661;80;21084;-71
2022/12/21 10:51:34;;;;;;;12.80;6.30;;;;;;;2.37;100.00;101013.33;1752468;80;21046;-71
2022/12/21 10:54:03;;;;;;;12.93;6.20;;;;;;;2.52;100.00;101009.36;1758799;80;21041;-71
2022/12/21 10:56:34;;;;;;;13.60;5.47;;;;;;;2.58;100.00;100984.45;1763767;80;21062;-72
2022/12/21 10:59:24;;;;;;;17.07;6.30;;;;;;;2.63;100.00;100989.02;1759201;80;21026;-72
2022/12/21 11:01:52;;;;;;;12.90;6.47;;;;;;;2.60;100.00;100980.34;1764355;80;21070;-72
2022/12/21 11:04:30;;;;;;;13.77;5.50;;;;;;;2.59;100.00;100975.49;1760747;80;21029;-71
2022/12/21 11:07:25;;;;;;;13.13;5.43;;;;;;;2.58;100.00;100963.08;1751060;80;21544;-72
2022/12/21 11:10:01;;;;;;;20.83;8.67;;;;;;;2.57;100.00;100966.73;1760526;80;21029;-70
2022/12/21 11:12:28;;;;;;;14.30;5.97;;;;;;;2.60;100.00;100961.66;1757666;80;21158;-74
2022/12/21 11:14:55;;;;;;;13.00;5.63;;;;;;;2.60;100.00;100949.64;1779753;80;21069;-68
2022/12/21 11:17:28;;;;;;;12.83;5.93;;;;;;;2.53;100.00;100946.98;1770309;80;21495;-70
2022/12/21 11:20:07;;;;;;;16.10;6.77;;;;;;;2.43;100.00;100943.56;1773618;80;21105;-72
2022/12/21 11:22:35;;;;;;;17.00;6.90;;;;;;;2.44;100.00;100957.76;1759346;80;21068;-72
2022/12/21 11:25:03;;;;;;;19.47;8.00;;;;;;;2.49;100.00;100953.48;1708276;81;21062;-71
2022/12/21 11:27:33;;;;;;;34.13;16.13;;;;;;;2.46;100.00;100951.84;1761741;80;21508;-72
2022/12/21 11:30:07;;;;;;;17.07;7.73;;;;;;;2.46;100.00;100966.52;1763907;80;21555;-71
2022/12/21 11:32:37;;;;;;;15.07;6.57;;;;;;;2.40;100.00;100952.24;1754393;80;21066;-71
2022/12/21 11:35:05;;;;;;;13.10;6.40;;;;;;;2.31;100.00;100951.49;1764731;80;21566;-71
2022/12/21 11:37:44;;;;;;;13.53;6.33;;;;;;;2.31;100.00;100954.16;1763343;80;21030;-71
2022/12/21 11:40:20;;;;;;;14.50;6.07;;;;;;;2.34;100.00;100956.61;1765070;80;21120;-72
2022/12/21 11:43:03;;;;;;;13.30;5.93;;;;;;;2.25;100.00;100946.91;1768761;80;21058;-72
2022/12/21 11:46:00;;;;;;;13.88;6.42;;;;;;;2.24;100.00;100945.67;1771362;80;21044;-71
2022/12/21 11:48:41;;;;;;;15.57;6.90;;;;;;;2.23;100.00;100944.81;1765027;79;21030;-72
2022/12/21 11:51:29;;;;;;;16.23;7.23;;;;;;;2.22;100.00;100947.09;1757732;81;20956;-71
2022/12/21 11:54:29;;;;;;;15.03;6.47;;;;;;;2.17;100.00;100954.52;1758242;80;21030;-71
2022/12/21 11:57:22;;;;;;;14.50;6.57;;;;;;;2.12;100.00;100955.28;1755088;80;21086;-72
2022/12/21 12:00:07;;;;;;;14.83;6.33;;;;;;;2.07;100.00;100951.58;1763079;80;20999;-68
2022/12/21 12:02:57;;;;;;;13.67;6.30;;;;;;;2.08;100.00;100947.09;1768528;80;21030;-68
2022/12/21 12:05:50;;;;;;;19.63;8.97;;;;;;;2.07;100.00;100946.24;1774134;80;21069;-70
2022/12/21 12:08:31;;;;;;;16.83;7.50;;;;;;;2.07;100.00;100956.03;1756034;80;20986;-70
2022/12/21 12:11:15;;;;;;;20.03;9.40;;;;;;;2.08;100.00;100953.28;1766703;80;21067;-70
2022/12/21 12:14:27;;;;;;;14.23;6.77;;;;;;;2.03;100.00;100944.69;1757088;80;20970;-71
2022/12/21 12:17:22;;;;;;;20.73;8.20;;;;;;;1.96;100.00;100948.69;1758710;80;21047;-70
2022/12/21 12:20:12;;;;;;;17.40;7.70;;;;;;;1.92;100.00;100953.84;1762779;80;21027;-71
2022/12/21 12:23:09;;;;;;;13.90;7.03;;;;;;;1.88;100.00;100942.50;1760816;80;21129;-70
2022/12/21 12:26:00;;;;;;;15.03;7.33;;;;;;;1.82;100.00;100940.67;1744462;80;21611;-71
2022/12/21 12:28:37;;;;;;;21.80;10.97;;;;;;;1.76;100.00;100937.06;1760340;81;21022;-72